Flight Track Log - Related Links

Times and Time Zones

All times are in EDT time to prevent confusion due to time zone crossing. See the UAE27 flight status page for this flight to view local times or setup timezone preferences in your user account.

Time Position Orientation Groundspeed Altitude Reporting Facility
EDT Latitude Longitude Course Direction KTS MPH feet Rate Location/Type
Mon 12:15:20 AM 25.2720 55.3370 301° West 192 221 1,000  Level FlightAware ADS-B
Mon 12:15:40 AM 25.2830 55.3170 301° West 195 224 2,000 2,400 Climbing FlightAware ADS-B
Mon 12:16:05 AM 25.2940 55.2980 303° West 212 244 2,800 2,123 Climbing FlightAware ADS-B
Mon 12:16:45 AM 25.3170 55.2570 302° West 248 285 4,300 2,400 Climbing FlightAware ADS-B
Mon 12:17:00 AM 25.3260 55.2400 300° West 259 298 5,000 2,700 Climbing FlightAware ADS-B
Mon 12:17:25 AM 25.3450 55.2000 298° West 296 341 6,100 2,400 Climbing FlightAware ADS-B
Mon 12:17:55 AM 25.3510 55.1520 278° West 318 366 7,200 2,509 Climbing FlightAware ADS-B
Mon 12:18:20 AM 25.3550 55.1110 276° West 330 380 8,400 3,000 Climbing FlightAware ADS-B
Mon 12:19:05 AM 25.3610 55.0350 275° West 344 396 10,700 3,671 Climbing FlightAware ADS-B
Mon 12:19:45 AM 25.3670 54.9660 276° West 327 376 13,600 3,600 Climbing FlightAware ADS-B
Mon 12:20:25 AM 25.3720 54.9000 275° West 337 388 15,500 2,682 Climbing FlightAware ADS-B
Mon 12:21:10 AM 25.3790 54.8190 275° West 353 406 17,400 2,400 Climbing FlightAware ADS-B
Mon 12:21:50 AM 25.3910 54.7460 280° West 373 429 18,900 1,553 Climbing FlightAware ADS-B
Mon 12:22:35 AM 25.4110 54.6670 286° West 376 433 19,600 494 Climbing FlightAware ADS-B
Mon 12:23:15 AM 25.4260 54.6040 285° West 376 433 19,600  Level FlightAware ADS-B
Mon 12:23:55 AM 25.4410 54.5400 285° West 376 433 19,600  Level FlightAware ADS-B
Mon 12:24:35 AM 25.4560 54.4770 285° West 376 433 19,600  Level FlightAware ADS-B
Mon 12:25:15 AM 25.4720 54.4140 286° West 376 433 19,600 3,840 Level FlightAware ADS-B
Mon 12:26:40 AM 25.5310 54.1770 285° West 28,700 4,978 Climbing FlightAware ADS-B
Mon 12:27:30 AM 25.5560 54.0720 285° West 413 475 30,800 2,200 Climbing FlightAware ADS-B
Mon 12:28:10 AM 25.5780 53.9830 285° West 410 472 32,000 800 Climbing FlightAware ADS-B
Mon 12:29:00 AM 25.6010 53.8880 285° West 401 461 32,000  Level FlightAware ADS-B
Mon 12:29:45 AM 25.6230 53.7930 284° West 400 460 32,000  Level FlightAware ADS-B
Mon 12:30:30 AM 25.6450 53.7030 285° West 403 464 32,000  Level FlightAware ADS-B
Mon 12:31:10 AM 25.6640 53.6240 285° West 403 464 32,000  Level FlightAware ADS-B
Mon 12:31:55 AM 25.6860 53.5310 285° West 403 464 32,000  Level FlightAware ADS-B
Mon 12:32:35 AM 25.7050 53.4510 285° West 402 463 32,000  Level FlightAware ADS-B
Mon 12:33:20 AM 25.7260 53.3590 284° West 402 463 32,000  Level FlightAware ADS-B
Mon 12:34:00 AM 25.7430 53.2800 283° West 402 463 32,000  Level FlightAware ADS-B
Mon 12:34:40 AM 25.7530 53.1990 278° West 402 463 32,000 847 Level FlightAware ADS-B
Mon 12:35:25 AM 25.7620 53.1050 276° West 399 459 33,200 1,412 Climbing FlightAware ADS-B
Mon 12:36:05 AM 25.7860 53.0270 289° West 404 465 34,000 600 Climbing FlightAware ADS-B
Mon 12:36:45 AM 25.8210 52.9560 299° West 404 465 34,000  Level FlightAware ADS-B
Mon 12:37:30 AM 25.8620 52.8730 299° West 403 464 34,000  Level FlightAware ADS-B
Mon 12:38:10 AM 25.8970 52.8000 298° West 398 458 34,000  Level FlightAware ADS-B
Mon 12:38:50 AM 25.9310 52.7280 298° West 398 458 34,000  Level FlightAware ADS-B
Mon 12:39:35 AM 25.9690 52.6490 298° West 397 457 34,000  Level FlightAware ADS-B
Mon 12:40:15 AM 26.0010 52.5810 298° West 398 458 34,000  Level FlightAware ADS-B
Mon 12:41:00 AM 26.0430 52.4940 298° West 398 458 34,000  Level FlightAware ADS-B
Mon 12:41:40 AM 26.0800 52.4170 298° West 398 458 34,000  Level FlightAware ADS-B
Mon 12:42:20 AM 26.1100 52.3520 297° West 398 458 34,000  Level FlightAware ADS-B
Mon 12:43:05 AM 26.1540 52.2610 298° West 398 458 34,000  Level FlightAware ADS-B
Mon 12:43:45 AM 26.1880 52.1890 298° West 398 458 34,000  Level FlightAware ADS-B
Mon 12:44:25 AM 26.2210 52.1190 298° West 398 458 34,000  Level FlightAware ADS-B
Mon 12:45:10 AM 26.2620 52.0330 298° West 396 456 34,000  Level FlightAware ADS-B
Mon 12:45:55 AM 26.2990 51.9540 298° West 394 453 34,000  Level FlightAware ADS-B
Mon 12:46:35 AM 26.3350 51.8780 298° West 394 453 34,000  Level FlightAware ADS-B
Mon 12:47:15 AM 26.3680 51.8070 297° West 394 453 34,000  Level FlightAware ADS-B
Mon 12:48:00 AM 26.4070 51.7230 297° West 394 453 34,000  Level FlightAware ADS-B
Mon 12:48:40 AM 26.4410 51.6520 298° West 396 456 34,000  Level FlightAware ADS-B
Mon 12:49:25 AM 26.4780 51.5710 297° West 394 453 34,000  Level FlightAware ADS-B
Mon 12:50:05 AM 26.5090 51.5050 298° West 393 452 34,000  Level FlightAware ADS-B
Mon 12:50:45 AM 26.5410 51.4350 297° West 392 451 34,000  Level FlightAware ADS-B
Mon 12:51:30 AM 26.5820 51.3460 297° West 390 449 34,000  Level FlightAware ADS-B
Mon 12:52:10 AM 26.6140 51.2760 297° West 390 449 34,000  Level FlightAware ADS-B
Mon 12:52:55 AM 26.6460 51.1950 294° West 383 441 34,000  Level FlightAware ADS-B
Mon 12:53:35 AM 26.6750 51.1190 293° West 380 437 34,000  Level FlightAware ADS-B
Mon 12:54:15 AM 26.7030 51.0470 294° West 381 438 34,000  Level FlightAware ADS-B
Mon 12:55:00 AM 26.7340 50.9680 294° West 379 436 34,000  Level FlightAware ADS-B
Mon 12:55:40 AM 26.7630 50.8940 294° West 379 436 34,000  Level FlightAware ADS-B
Mon 12:56:35 AM 26.7970 50.8030 293° West 379 436 34,000  Level FlightAware ADS-B
Mon 12:57:20 AM 26.8330 50.7100 293° West 379 436 34,000  Level FlightAware ADS-B
Mon 12:58:00 AM 26.8610 50.6390 294° West 380 437 34,000  Level FlightAware ADS-B
Mon 12:58:40 AM 26.8860 50.5700 292° West 379 436 34,000  Level FlightAware ADS-B
Mon 12:59:20 AM 26.9090 50.5080 293° West 379 436 34,000  Level FlightAware ADS-B
Mon 01:00:00 AM 26.9310 50.4460 292° West 379 436 34,000  Level FlightAware ADS-B
Mon 01:00:50 AM 26.9590 50.3690 292° West 379 436 34,000  Level FlightAware ADS-B
Mon 01:01:30 AM 26.9810 50.3070 292° West 379 436 34,000  Level FlightAware ADS-B
Mon 01:02:10 AM 27.0030 50.2450 292° West 379 436 34,000  Level FlightAware ADS-B
Mon 01:02:50 AM 27.0260 50.1830 293° West 379 436 34,000  Level FlightAware ADS-B
Mon 01:03:30 AM 27.0480 50.1210 292° West 379 436 34,000  Level FlightAware ADS-B
Mon 01:04:20 AM 27.0760 50.0430 292° West 379 436 34,000  Level FlightAware ADS-B
Mon 01:05:00 AM 27.0980 49.9810 292° West 379 436 34,000  Level FlightAware ADS-B
Mon 01:05:40 AM 27.1210 49.9190 293° West 379 436 34,000  Level FlightAware ADS-B
Mon 01:06:20 AM 27.1430 49.8570 292° West 379 436 34,000  Level FlightAware ADS-B
Mon 01:07:10 AM 27.1710 49.7790 292° West 379 436 34,000  Level FlightAware ADS-B
Mon 01:07:50 AM 27.1930 49.7170 292° West 379 436 34,000  Level FlightAware ADS-B
Mon 01:10:00 AM 27.3818 49.5519 322° Northwest  Level Estimated
Mon 01:11:00 AM 27.4689 49.4756 322° Northwest  Level Estimated
Mon 01:11:50 AM 27.8620 49.4790 322° Northwest 406 467 34,000  Level FlightAware ADS-B
Mon 01:12:25 AM 27.9140 49.4440 329° Northwest 407 468 34,000  Level FlightAware ADS-B
Mon 01:13:20 AM 28.0020 49.3810 328° Northwest 406 467 34,000  Level FlightAware ADS-B
Mon 01:14:05 AM 28.0670 49.3350 328° Northwest 406 467 34,000  Level FlightAware ADS-B
Mon 01:14:50 AM 28.1440 49.2810 328° Northwest 406 467 34,000  Level FlightAware ADS-B
Mon 01:15:30 AM 28.2060 49.2370 328° Northwest 405 466 34,000  Level FlightAware ADS-B
Mon 01:16:10 AM 28.2650 49.1950 328° Northwest 405 466 34,000  Level FlightAware ADS-B
Mon 01:17:25 AM 28.3930 49.1040 328° Northwest 403 464 34,000  Level FlightAware ADS-B
Mon 01:18:05 AM 28.4580 49.0570 328° Northwest 402 463 34,000  Level FlightAware ADS-B
Mon 01:18:50 AM 28.5240 49.0090 327° Northwest 402 463 34,000  Level FlightAware ADS-B
Mon 01:19:20 AM 28.6080 48.9500 328° Northwest 401 461 34,000  Level FlightAware ADS-B
Mon 01:20:25 AM 28.6780 48.8990 327° Northwest 403 464 34,000  Level FlightAware ADS-B
Mon 01:21:00 AM 28.7370 48.8570 328° Northwest 405 466 34,000  Level FlightAware ADS-B
Mon 01:21:50 AM 28.8080 48.8060 328° Northwest 407 468 34,000  Level FlightAware ADS-B
Mon 01:22:30 AM 28.8750 48.7570 327° Northwest 408 470 34,000  Level FlightAware ADS-B
Mon 01:23:15 AM 28.9520 48.7020 328° Northwest 410 472 34,000  Level FlightAware ADS-B
Mon 01:23:55 AM 29.0060 48.6630 328° Northwest 410 472 34,000  Level FlightAware ADS-B
Mon 01:24:35 AM 29.0730 48.6140 327° Northwest 410 472 34,000  Level FlightAware ADS-B
Mon 01:25:35 AM 29.1780 48.5380 328° Northwest 411 473 34,000  Level FlightAware ADS-B
Mon 01:26:15 AM 29.2360 48.4960 328° Northwest 414 476 34,000  Level FlightAware ADS-B
Mon 01:27:00 AM 29.3090 48.4430 328° Northwest 416 479 34,000  Level FlightAware ADS-B
Mon 01:27:40 AM 29.3710 48.3970 327° Northwest 417 480 34,000  Level FlightAware ADS-B
Mon 01:28:20 AM 29.4400 48.3470 328° Northwest 419 482 34,000  Level FlightAware ADS-B
Mon 01:29:05 AM 29.5060 48.2980 327° Northwest 419 482 34,000  Level FlightAware ADS-B
Mon 01:29:45 AM 29.5900 48.2370 328° Northwest 422 486 34,000  Level FlightAware ADS-B
Mon 01:30:20 AM 29.6420 48.1980 327° Northwest 424 488 34,000  Level FlightAware ADS-B
Mon 01:31:20 AM 29.7380 48.1280 328° Northwest 426 490 34,000  Level FlightAware ADS-B
Mon 01:32:00 AM 29.8030 48.0800 327° Northwest 426 490 34,000  Level FlightAware ADS-B
Mon 01:32:50 AM 29.8950 48.0120 327° Northwest 425 489 34,000  Level FlightAware ADS-B
Mon 01:33:30 AM 29.9660 47.9600 328° Northwest 423 487 34,000  Level FlightAware ADS-B
Mon 01:34:10 AM 30.0220 47.9130 324° Northwest 413 475 34,000  Level FlightAware ADS-B
Mon 01:35:05 AM 30.0940 47.8280 314° West 409 471 34,000  Level FlightAware ADS-B
Mon 01:35:50 AM 30.1590 47.7560 316° Northwest 409 471 34,000  Level FlightAware ADS-B
Mon 01:36:45 AM 30.2280 47.6850 318° Northwest 410 472 34,000  Level FlightAware ADS-B
Mon 01:37:25 AM 30.2760 47.6350 318° Northwest 410 472 34,000  Level FlightAware ADS-B
Mon 01:38:05 AM 30.3240 47.5850 318° Northwest 410 472 34,000  Level FlightAware ADS-B
Mon 01:38:45 AM 30.3720 47.5350 318° Northwest 410 472 34,000  Level FlightAware ADS-B
Mon 01:39:35 AM 30.4320 47.4720 318° Northwest 410 472 34,000  Level FlightAware ADS-B
Mon 01:40:15 AM 30.4800 47.4220 318° Northwest 410 472 34,000  Level FlightAware ADS-B
Mon 01:40:55 AM 30.5280 47.3720 318° Northwest 410 472 34,000  Level FlightAware ADS-B
Mon 01:41:35 AM 30.5750 47.3220 318° Northwest 410 472 34,000  Level FlightAware ADS-B
Mon 01:42:15 AM 30.6230 47.2720 318° Northwest 410 472 34,000  Level FlightAware ADS-B
Mon 01:43:05 AM 30.6830 47.2090 318° Northwest 410 472 34,000  Level FlightAware ADS-B
Mon 01:43:45 AM 30.7310 47.1590 318° Northwest 410 472 34,000  Level FlightAware ADS-B
Mon 01:44:25 AM 30.7790 47.1080 318° Northwest 410 472 34,000  Level FlightAware ADS-B
Mon 01:45:05 AM 30.8270 47.0580 318° Northwest 410 472 34,000  Level FlightAware ADS-B
Mon 01:45:45 AM 30.8750 47.0080 318° Northwest 410 472 34,000  Level FlightAware ADS-B
Mon 01:48:00 AM 31.0663 46.8234 320° Northwest  Level Estimated
Mon 01:49:00 AM 31.1512 46.7411 320° Northwest  Level Estimated
Mon 01:50:00 AM 31.2361 46.6587 320° Northwest  Level Estimated
Mon 01:51:00 AM 31.3209 46.5761 320° Northwest  Level Estimated
Mon 01:52:00 AM 31.4057 46.4934 320° Northwest  Level Estimated
Mon 01:53:00 AM 31.4904 46.4105 320° Northwest  Level Estimated
Mon 01:54:00 AM 31.5750 46.3274 320° Northwest  Level Estimated
Mon 01:55:00 AM 31.6596 46.2443 320° Northwest  Level Estimated
Mon 01:56:00 AM 31.7442 46.1609 320° Northwest  Level Estimated
Mon 01:57:00 AM 31.8287 46.0774 320° Northwest  Level Estimated
Mon 01:58:00 AM 31.9131 45.9938 320° Northwest  Level Estimated
Mon 01:59:00 AM 31.9975 45.9100 320° Northwest  Level Estimated
Mon 02:00:00 AM 32.0818 45.8260 320° Northwest  Level Estimated
Mon 02:01:00 AM 32.1661 45.7420 320° Northwest  Level Estimated
Mon 02:02:00 AM 32.2504 45.6577 320° Northwest  Level Estimated
Mon 02:03:00 AM 32.3345 45.5733 320° Northwest  Level Estimated
Mon 02:03:20 AM 32.5200 45.2210 320° Northwest 425 489 34,000  Level FlightAware ADS-B
Mon 02:04:20 AM 32.6060 45.1250 317° Northwest 425 489 34,000  Level FlightAware ADS-B
Mon 02:05:00 AM 32.6710 45.0670 323° Northwest 444 511 34,000  Level FlightAware ADS-B
Mon 02:05:40 AM 32.7460 45.0210 333° Northwest 450 518 34,000  Level FlightAware ADS-B
Mon 02:06:25 AM 32.8300 44.9700 333° Northwest 448 516 34,000  Level FlightAware ADS-B
Mon 02:07:05 AM 32.9010 44.9270 333° Northwest 449 517 34,000  Level FlightAware ADS-B
Mon 02:07:50 AM 32.9840 44.8760 333° Northwest 450 518 34,000  Level FlightAware ADS-B
Mon 02:08:30 AM 33.0590 44.8300 333° Northwest 447 514 34,000  Level FlightAware ADS-B
Mon 02:09:10 AM 33.1330 44.7850 333° Northwest 445 512 34,000  Level FlightAware ADS-B
Mon 02:09:55 AM 33.2180 44.7350 334° Northwest 453 521 34,000  Level FlightAware ADS-B
Mon 02:10:35 AM 33.2960 44.7040 342° North 461 531 34,000  Level FlightAware ADS-B
Mon 02:11:15 AM 33.3800 44.6730 343° North 462 532 34,000  Level FlightAware ADS-B
Mon 02:12:00 AM 33.4690 44.6410 343° North 460 529 34,000  Level FlightAware ADS-B
Mon 02:12:40 AM 33.5520 44.6070 341° North 455 524 34,000  Level FlightAware ADS-B
Mon 02:13:25 AM 33.6410 44.5640 338° Northwest 454 522 34,000  Level FlightAware ADS-B
Mon 02:14:05 AM 33.7190 44.5260 338° Northwest 455 524 34,000  Level FlightAware ADS-B
Mon 02:14:45 AM 33.7950 44.4880 337° Northwest 455 524 34,000  Level FlightAware ADS-B
Mon 02:15:30 AM 33.8800 44.4460 338° Northwest 454 522 34,000  Level FlightAware ADS-B
Mon 02:16:10 AM 33.9600 44.4070 338° Northwest 454 522 34,000  Level FlightAware ADS-B
Mon 02:16:45 AM 34.0220 44.3760 337° Northwest 454 522 34,000  Level FlightAware ADS-B
Mon 02:17:35 AM 34.1250 44.3250 338° Northwest 453 521 34,000  Level FlightAware ADS-B
Mon 02:18:25 AM 34.2150 44.2790 337° Northwest 454 522 34,000  Level FlightAware ADS-B
Mon 02:19:15 AM 34.3200 44.2280 338° Northwest 454 522 34,000  Level FlightAware ADS-B
Mon 02:19:55 AM 34.3990 44.1890 338° Northwest 456 525 34,000  Level FlightAware ADS-B
Mon 02:20:35 AM 34.4770 44.1490 337° Northwest 457 526 34,000  Level FlightAware ADS-B
Mon 02:21:20 AM 34.5630 44.1050 337° Northwest 461 531 34,000  Level FlightAware ADS-B
Mon 02:22:00 AM 34.6410 44.0640 337° Northwest 462 532 34,000  Level FlightAware ADS-B
Mon 02:22:45 AM 34.7330 44.0160 337° Northwest 463 533 34,000  Level FlightAware ADS-B
Mon 02:23:25 AM 34.8110 43.9750 337° Northwest 464 534 34,000  Level FlightAware ADS-B
Mon 02:24:05 AM 34.8910 43.9330 337° Northwest 463 533 34,000  Level FlightAware ADS-B
Mon 02:24:50 AM 34.9770 43.8870 336° Northwest 461 531 34,000  Level FlightAware ADS-B
Mon 02:25:30 AM 35.0580 43.8440 337° Northwest 460 529 34,000  Level FlightAware ADS-B
Mon 02:26:15 AM 35.1440 43.7990 337° Northwest 460 529 34,000 282 Level FlightAware ADS-B
Mon 02:26:55 AM 35.2240 43.7560 336° Northwest 464 534 34,400 750 Climbing FlightAware ADS-B
Mon 02:27:35 AM 35.3020 43.7150 337° Northwest 471 542 35,000 847 Climbing FlightAware ADS-B
Mon 02:28:20 AM 35.3930 43.6660 336° Northwest 462 532 35,600 706 Climbing FlightAware ADS-B
Mon 02:29:00 AM 35.4710 43.6250 337° Northwest 461 531 36,000 282 Climbing FlightAware ADS-B
Mon 02:29:45 AM 35.5580 43.5780 336° Northwest 465 535 36,000  Level FlightAware ADS-B
Mon 02:30:25 AM 35.6380 43.5350 336° Northwest 467 537 36,000  Level FlightAware ADS-B
Mon 02:31:05 AM 35.7170 43.4930 337° Northwest 468 539 36,000  Level FlightAware ADS-B
Mon 02:31:50 AM 35.8080 43.4440 336° Northwest 468 539 36,000  Level FlightAware ADS-B
Mon 02:32:30 AM 35.8840 43.4030 336° Northwest 468 539 36,000  Level FlightAware ADS-B
Mon 02:33:10 AM 35.9630 43.3600 336° Northwest 468 539 36,000  Level FlightAware ADS-B
Mon 02:33:55 AM 36.0440 43.2930 326° Northwest 458 527 36,000  Level FlightAware ADS-B
Mon 02:34:35 AM 36.1070 43.2220 318° Northwest 458 527 36,000  Level FlightAware ADS-B
Mon 02:35:20 AM 36.1770 43.1460 319° Northwest 458 527 36,000  Level FlightAware ADS-B
Mon 02:36:00 AM 36.2420 43.0730 318° Northwest 458 527 36,000  Level FlightAware ADS-B
Mon 02:36:40 AM 36.3030 43.0050 318° Northwest 457 526 36,000  Level FlightAware ADS-B
Mon 02:37:25 AM 36.3750 42.9250 318° Northwest 456 525 36,000  Level FlightAware ADS-B
Mon 02:38:05 AM 36.4380 42.8560 319° Northwest 457 526 36,000  Level FlightAware ADS-B
Mon 02:38:45 AM 36.5010 42.7850 318° Northwest 458 527 36,000  Level FlightAware ADS-B
Mon 02:39:30 AM 36.5840 42.7210 328° Northwest 467 537 36,000  Level FlightAware ADS-B
Mon 02:40:10 AM 36.6580 42.6750 333° Northwest 469 540 36,000  Level FlightAware ADS-B
Mon 02:40:55 AM 36.7480 42.6190 334° Northwest 469 540 36,000  Level FlightAware ADS-B
Mon 02:41:35 AM 36.8250 42.5710 333° Northwest 470 541 36,000  Level FlightAware ADS-B
Mon 02:42:15 AM 36.9030 42.5220 333° Northwest 470 541 36,000  Level FlightAware ADS-B
Mon 02:43:00 AM 36.9880 42.4690 334° Northwest 469 540 36,000  Level FlightAware ADS-B
Mon 02:43:45 AM 37.0780 42.4120 333° Northwest 469 540 36,000  Level FlightAware ADS-B
Mon 02:44:25 AM 37.1560 42.3630 333° Northwest 471 542 36,000  Level FlightAware ADS-B
Mon 02:45:10 AM 37.2410 42.3090 333° Northwest 470 541 36,000  Level FlightAware ADS-B
Mon 02:45:50 AM 37.3220 42.2580 333° Northwest 471 542 36,000  Level FlightAware ADS-B
Mon 02:46:30 AM 37.4010 42.2080 333° Northwest 473 544 36,000  Level FlightAware ADS-B
Mon 02:47:15 AM 37.4860 42.1540 333° Northwest 473 544 36,000  Level FlightAware ADS-B
Mon 02:47:55 AM 37.5650 42.1040 333° Northwest 474 545 36,000  Level FlightAware ADS-B
Mon 02:48:40 AM 37.6540 42.0460 333° Northwest 473 544 36,000  Level FlightAware ADS-B
Mon 02:49:20 AM 37.7300 41.9980 333° Northwest 474 545 36,000  Level FlightAware ADS-B
Mon 02:50:00 AM 37.8110 41.9460 333° Northwest 475 547 36,000  Level FlightAware ADS-B
Mon 02:50:40 AM 37.8850 41.8960 332° Northwest 472 543 36,000  Level FlightAware ADS-B
Mon 02:51:25 AM 37.9590 41.8120 318° Northwest 464 534 36,000  Level FlightAware ADS-B
Mon 02:52:15 AM 38.0240 41.7180 311° West 464 534 36,000  Level FlightAware ADS-B
Mon 02:53:05 AM 38.1000 41.6080 311° West 465 535 36,000  Level FlightAware ADS-B
Mon 02:53:35 AM 38.1420 41.5480 312° West 465 535 36,000  Level FlightAware ADS-B
Mon 02:54:25 AM 38.2100 41.4500 311° West 464 534 36,000  Level FlightAware ADS-B
Mon 02:55:05 AM 38.2630 41.3720 311° West 464 534 36,000  Level FlightAware ADS-B
Mon 02:55:45 AM 38.3110 41.3020 311° West 464 534 36,000  Level FlightAware ADS-B
Mon 02:56:35 AM 38.3710 41.2140 311° West 464 534 36,000  Level FlightAware ADS-B
Mon 02:57:15 AM 38.4190 41.1430 311° West 464 534 36,000  Level FlightAware ADS-B
Mon 02:57:55 AM 38.4670 41.0730 311° West 464 534 36,000  Level FlightAware ADS-B
Mon 02:58:35 AM 38.5150 41.0030 311° West 464 534 36,000  Level FlightAware ADS-B
Mon 02:59:15 AM 38.5630 40.9320 311° West 464 534 36,000  Level FlightAware ADS-B
Mon 02:59:55 AM 38.6110 40.8620 311° West 464 534 36,000  Level FlightAware ADS-B
Mon 03:00:37 AM 38.6610 40.7880 311° West 464 534 36,000  Level FlightAware ADS-B
Mon 03:01:27 AM 38.7210 40.7000 311° West 464 534 36,000  Level FlightAware ADS-B
Mon 03:02:07 AM 38.7690 40.6290 311° West 464 534 36,000  Level FlightAware ADS-B
Mon 03:02:47 AM 38.8160 40.5580 310° West 464 534 36,000  Level FlightAware ADS-B
Mon 03:03:37 AM 38.8760 40.4700 311° West 464 534 36,000  Level FlightAware ADS-B
Mon 03:04:17 AM 38.9240 40.3990 311° West 464 534 36,000  Level FlightAware ADS-B
Mon 03:06:00 AM 39.0576 40.2262 315° West  Level Estimated
Mon 03:07:00 AM 39.1352 40.1252 315° West  Level Estimated
Mon 03:08:00 AM 39.2128 40.0240 315° West  Level Estimated
Mon 03:09:00 AM 39.2904 39.9226 315° West  Level Estimated
Mon 03:10:00 AM 39.3678 39.8209 315° West  Level Estimated
Mon 03:11:00 AM 39.4451 39.7190 315° West  Level Estimated
Mon 03:12:00 AM 39.5223 39.6169 314° West  Level Estimated
Mon 03:13:00 AM 39.5995 39.5146 314° West  Level Estimated
Mon 03:14:00 AM 39.6766 39.4120 314° West  Level Estimated
Mon 03:15:00 AM 39.7535 39.3092 314° West  Level Estimated
Mon 03:16:00 AM 39.8304 39.2062 314° West  Level Estimated
Mon 03:17:00 AM 39.9072 39.1030 314° West  Level Estimated
Mon 03:18:00 AM 39.9839 38.9995 314° West  Level Estimated
Mon 03:19:00 AM 40.0605 38.8958 314° West  Level Estimated
Mon 03:20:00 AM 40.1370 38.7918 314° West  Level Estimated
Mon 03:21:00 AM 40.2134 38.6877 314° West  Level Estimated
Mon 03:22:00 AM 40.2898 38.5832 314° West  Level Estimated
Mon 03:23:00 AM 40.3660 38.4786 314° West  Level Estimated
Mon 03:24:00 AM 40.4421 38.3737 314° West  Level Estimated
Mon 03:25:00 AM 40.5182 38.2686 314° West  Level Estimated
Mon 03:26:00 AM 40.5941 38.1632 314° West  Level Estimated
Mon 03:27:00 AM 40.6700 38.0576 313° West  Level Estimated
Mon 03:28:00 AM 40.7457 37.9518 313° West  Level Estimated
Mon 03:29:00 AM 40.8214 37.8457 313° West  Level Estimated
Mon 03:30:00 AM 40.8969 37.7394 313° West  Level Estimated
Mon 03:31:00 AM 40.9724 37.6328 313° West  Level Estimated
Mon 03:32:00 AM 41.0478 37.5260 313° West  Level Estimated
Mon 03:33:00 AM 41.1230 37.4189 313° West  Level Estimated
Mon 03:34:00 AM 41.1982 37.3116 313° West  Level Estimated
Mon 03:35:00 AM 41.2733 37.2041 313° West  Level Estimated
Mon 03:36:00 AM 41.3482 37.0963 313° West  Level Estimated
Mon 03:37:00 AM 41.4231 36.9882 313° West  Level Estimated
Mon 03:38:00 AM 41.4979 36.8799 313° West  Level Estimated
Mon 03:39:00 AM 41.5725 36.7714 313° West  Level Estimated
Mon 03:40:00 AM 41.6471 36.6626 313° West  Level Estimated
Mon 03:41:00 AM 41.7215 36.5535 312° West  Level Estimated
Mon 03:42:00 AM 41.7959 36.4442 312° West  Level Estimated
Mon 03:43:00 AM 41.8701 36.3347 312° West  Level Estimated
Mon 03:44:00 AM 41.9443 36.2249 312° West  Level Estimated
Mon 03:45:00 AM 42.0183 36.1148 312° West  Level Estimated
Mon 03:46:00 AM 42.0923 36.0045 312° West  Level Estimated
Mon 03:47:00 AM 42.1661 35.8939 312° West  Level Estimated
Mon 03:48:00 AM 42.2398 35.7831 312° West  Level Estimated
Mon 03:49:00 AM 42.3134 35.6720 312° West  Level Estimated
Mon 03:49:07 AM 42.6310 34.2850 312° West 459 528 36,000  Level FlightAware ADS-B
Mon 03:49:47 AM 42.6910 34.2060 316° Northwest 458 527 36,000  Level FlightAware ADS-B
Mon 03:50:27 AM 42.7470 34.1330 316° Northwest 459 528 36,000  Level FlightAware ADS-B
Mon 03:51:12 AM 42.8040 34.0140 303° West 469 540 36,000  Level FlightAware ADS-B
Mon 03:51:52 AM 42.8370 33.9060 293° West 468 539 36,000  Level FlightAware ADS-B
Mon 03:52:32 AM 42.8700 33.7980 293° West 467 537 36,000  Level FlightAware ADS-B
Mon 03:53:17 AM 42.9070 33.6760 293° West 466 536 36,000  Level FlightAware ADS-B
Mon 03:53:57 AM 42.9400 33.5680 293° West 466 536 36,000  Level FlightAware ADS-B
Mon 03:54:37 AM 42.9730 33.4570 292° West 465 535 36,000  Level FlightAware ADS-B
Mon 03:55:22 AM 43.0090 33.3390 293° West 463 533 36,000  Level FlightAware ADS-B
Mon 03:56:02 AM 43.0420 33.2290 292° West 463 533 36,000  Level FlightAware ADS-B
Mon 03:56:47 AM 43.0780 33.1070 292° West 463 533 36,000  Level FlightAware ADS-B
Mon 03:57:27 AM 43.1110 32.9960 292° West 464 534 36,000  Level FlightAware ADS-B
Mon 03:58:12 AM 43.1450 32.8750 291° West 463 533 36,000  Level FlightAware ADS-B
Mon 03:58:52 AM 43.1730 32.7670 290° West 464 534 36,000  Level FlightAware ADS-B
Mon 03:59:32 AM 43.2030 32.6560 290° West 464 534 36,000  Level FlightAware ADS-B
Mon 04:00:17 AM 43.2360 32.5300 290° West 463 533 36,000  Level FlightAware ADS-B
Mon 04:00:57 AM 43.2650 32.4230 290° West 461 531 36,000  Level FlightAware ADS-B
Mon 04:01:42 AM 43.2990 32.2990 291° West 460 529 36,000  Level FlightAware ADS-B
Mon 04:02:22 AM 43.3320 32.1890 292° West 461 531 36,000  Level FlightAware ADS-B
Mon 04:03:02 AM 43.3640 32.0850 293° West 461 531 36,000  Level FlightAware ADS-B
Mon 04:03:47 AM 43.4030 31.9600 293° West 463 533 36,000  Level FlightAware ADS-B
Mon 04:04:27 AM 43.4350 31.8530 292° West 462 532 36,000  Level FlightAware ADS-B
Mon 04:05:12 AM 43.4710 31.7360 293° West 461 531 36,000  Level FlightAware ADS-B
Mon 04:05:52 AM 43.5010 31.6330 292° West 462 532 36,000  Level FlightAware ADS-B
Mon 04:06:47 AM 43.5450 31.4710 291° West 463 533 36,000  Level FlightAware ADS-B
Mon 04:07:27 AM 43.5740 31.3660 291° West 463 533 36,000  Level FlightAware ADS-B
Mon 04:08:12 AM 43.6090 31.2370 291° West 463 533 36,000  Level FlightAware ADS-B
Mon 04:08:57 AM 43.6430 31.1130 291° West 462 532 36,000  Level FlightAware ADS-B
Mon 04:09:37 AM 43.6740 31.0030 291° West 462 532 36,000  Level FlightAware ADS-B
Mon 04:10:12 AM 43.7000 30.9160 292° West 461 531 36,000  Level FlightAware ADS-B
Mon 04:11:02 AM 43.7620 30.7970 306° West 458 527 36,000  Level FlightAware ADS-B
Mon 04:11:42 AM 43.8170 30.7070 310° West 458 527 36,000  Level FlightAware ADS-B
Mon 04:12:27 AM 43.8800 30.6020 310° West 458 527 36,000  Level FlightAware ADS-B
Mon 04:13:07 AM 43.9210 30.5340 310° West 458 527 36,000  Level FlightAware ADS-B
Mon 04:14:02 AM 44.0020 30.3990 310° West 458 527 36,000  Level FlightAware ADS-B
Mon 04:14:42 AM 44.0580 30.3040 309° West 458 527 36,000  Level FlightAware ADS-B
Mon 04:15:27 AM 44.1190 30.2010 310° West 456 525 36,000  Level FlightAware ADS-B
Mon 04:16:17 AM 44.1890 30.0840 310° West 457 526 36,000  Level FlightAware ADS-B
Mon 04:17:02 AM 44.2490 29.9810 309° West 458 527 36,000  Level FlightAware ADS-B
Mon 04:17:47 AM 44.3120 29.8760 310° West 458 527 36,000  Level FlightAware ADS-B
Mon 04:18:27 AM 44.3600 29.7930 309° West 458 527 36,000  Level FlightAware ADS-B
Mon 04:19:12 AM 44.4220 29.6870 309° West 457 526 36,000  Level FlightAware ADS-B
Mon 04:19:52 AM 44.4770 29.5920 309° West 458 527 36,000  Level FlightAware ADS-B
Mon 04:20:37 AM 44.5350 29.4920 309° West 457 526 36,000  Level FlightAware ADS-B
Mon 04:21:22 AM 44.5920 29.3930 309° West 456 525 36,000  Level FlightAware ADS-B
Mon 04:22:02 AM 44.6470 29.2990 309° West 456 525 36,000  Level FlightAware ADS-B
Mon 04:22:47 AM 44.7050 29.1980 309° West 457 526 36,000  Level FlightAware ADS-B
Mon 04:23:27 AM 44.7590 29.1020 308° West 456 525 36,000  Level FlightAware ADS-B
Mon 04:24:12 AM 44.8150 29.0040 309° West 455 524 36,000  Level FlightAware ADS-B
Mon 04:24:57 AM 44.8700 28.9080 309° West 453 521 36,000  Level FlightAware ADS-B
Mon 04:25:37 AM 44.9320 28.7980 309° West 453 521 36,000  Level FlightAware ADS-B
Mon 04:26:17 AM 44.9790 28.7150 309° West 450 518 36,000  Level FlightAware ADS-B
Mon 04:26:57 AM 45.0310 28.6220 308° West 451 519 36,000  Level FlightAware ADS-B
Mon 04:27:42 AM 45.0900 28.5170 309° West 451 519 36,000  Level FlightAware ADS-B
Mon 04:28:22 AM 45.1460 28.4170 308° West 452 520 36,000  Level FlightAware ADS-B
Mon 04:29:07 AM 45.2050 28.3110 308° West 454 522 36,000  Level FlightAware ADS-B
Mon 04:29:47 AM 45.2590 28.2140 308° West 454 522 36,000  Level FlightAware ADS-B
Mon 04:30:32 AM 45.3160 28.1100 308° West 454 522 36,000  Level FlightAware ADS-B
Mon 04:31:12 AM 45.3620 28.0270 308° West 455 524 36,000  Level FlightAware ADS-B
Mon 04:31:47 AM 45.4090 27.9410 308° West 454 522 36,000  Level FlightAware ADS-B
Mon 04:32:37 AM 45.4690 27.8190 305° West 455 524 36,000  Level FlightAware ADS-B
Mon 04:33:17 AM 45.5130 27.7270 304° West 455 524 36,000  Level FlightAware ADS-B
Mon 04:34:02 AM 45.5690 27.6090 304° West 453 521 36,000  Level FlightAware ADS-B
Mon 04:34:37 AM 45.6100 27.5220 304° West 453 521 36,000  Level FlightAware ADS-B
Mon 04:35:37 AM 45.6790 27.3750 304° West 452 520 36,000  Level FlightAware ADS-B
Mon 04:36:17 AM 45.7280 27.2710 304° West 452 520 36,000  Level FlightAware ADS-B
Mon 04:37:02 AM 45.7760 27.1670 304° West 452 520 36,000  Level FlightAware ADS-B
Mon 04:37:42 AM 45.8230 27.0650 303° West 453 521 36,000  Level FlightAware ADS-B
Mon 04:38:22 AM 45.8720 26.9600 304° West 453 521 36,000  Level FlightAware ADS-B
Mon 04:39:07 AM 45.9190 26.8570 303° West 454 522 36,000  Level FlightAware ADS-B
Mon 04:39:47 AM 45.9690 26.7490 304° West 454 522 36,000  Level FlightAware ADS-B
Mon 04:40:32 AM 46.0170 26.6420 303° West 455 524 36,000  Level FlightAware ADS-B
Mon 04:41:12 AM 46.0620 26.5400 302° West 454 522 36,000  Level FlightAware ADS-B
Mon 04:41:57 AM 46.1180 26.4150 303° West 454 522 36,000  Level FlightAware ADS-B
Mon 04:42:52 AM 46.1800 26.2760 303° West 454 522 36,000  Level FlightAware ADS-B
Mon 04:43:32 AM 46.2250 26.1730 302° West 454 522 36,000  Level FlightAware ADS-B
Mon 04:44:17 AM 46.2710 26.0690 303° West 455 524 36,000  Level FlightAware ADS-B
Mon 04:44:47 AM 46.3070 25.9850 302° West 456 525 36,000  Level FlightAware ADS-B
Mon 04:45:32 AM 46.3570 25.8710 302° West 456 525 36,000  Level FlightAware ADS-B
Mon 04:46:22 AM 46.4130 25.7420 302° West 457 526 36,000  Level FlightAware ADS-B
Mon 04:47:02 AM 46.4580 25.6380 302° West 456 525 36,000  Level FlightAware ADS-B
Mon 04:47:37 AM 46.4980 25.5470 303° West 456 525 36,000  Level FlightAware ADS-B
Mon 04:48:27 AM 46.5540 25.4150 302° West 457 526 36,000  Level FlightAware ADS-B
Mon 04:49:02 AM 46.5920 25.3260 302° West 457 526 36,000  Level FlightAware ADS-B
Mon 04:49:52 AM 46.6430 25.2070 302° West 458 527 36,000  Level FlightAware ADS-B
Mon 04:50:37 AM 46.6950 25.0830 301° West 457 526 36,000  Level FlightAware ADS-B
Mon 04:51:22 AM 46.7420 24.9730 302° West 458 527 36,000  Level FlightAware ADS-B
Mon 04:51:57 AM 46.7900 24.8580 301° West 458 527 36,000  Level FlightAware ADS-B
Mon 04:54:00 AM 46.9272 24.5950 307° West  Level Estimated
Mon 04:55:00 AM 46.9939 24.4662 307° West  Level Estimated
Mon 04:56:00 AM 47.0605 24.3371 307° West  Level Estimated
Mon 04:57:00 AM 47.1269 24.2076 307° West  Level Estimated
Mon 04:58:00 AM 47.1932 24.0779 307° West  Level Estimated
Mon 04:59:00 AM 47.2593 23.9478 307° West  Level Estimated
Mon 05:00:00 AM 47.3253 23.8174 307° West  Level Estimated
Mon 05:01:00 AM 47.3911 23.6867 307° West  Level Estimated
Mon 05:02:00 AM 47.4568 23.5556 307° West  Level Estimated
Mon 05:02:17 AM 47.4640 23.2030 307° West 465 535 36,000  Level FlightAware ADS-B
Mon 05:02:57 AM 47.5110 23.0840 300° West 460 529 36,000  Level FlightAware ADS-B
Mon 05:03:42 AM 47.5590 22.9620 300° West 460 529 36,000  Level FlightAware ADS-B
Mon 05:04:22 AM 47.6020 22.8510 300° West 460 529 36,000  Level FlightAware ADS-B
Mon 05:05:02 AM 47.6460 22.7400 301° West 459 528 36,000  Level FlightAware ADS-B
Mon 05:05:47 AM 47.6930 22.6170 300° West 464 534 36,000  Level FlightAware ADS-B
Mon 05:06:27 AM 47.7360 22.5070 300° West 464 534 36,000  Level FlightAware ADS-B
Mon 05:07:12 AM 47.7840 22.3820 300° West 463 533 36,000  Level FlightAware ADS-B
Mon 05:07:47 AM 47.8170 22.2940 299° West 464 534 36,000  Level FlightAware ADS-B
Mon 05:08:37 AM 47.8660 22.1650 300° West 466 536 36,000  Level FlightAware ADS-B
Mon 05:09:12 AM 47.9070 22.0590 300° West 467 537 36,000  Level FlightAware ADS-B
Mon 05:09:57 AM 47.9540 21.9340 299° West 465 535 36,000  Level FlightAware ADS-B
Mon 05:10:52 AM 48.0110 21.7810 299° West 467 537 36,000  Level FlightAware ADS-B
Mon 05:11:37 AM 48.0640 21.6400 299° West 468 539 36,000  Level FlightAware ADS-B
Mon 05:12:17 AM 48.1060 21.5270 299° West 468 539 36,000  Level FlightAware ADS-B
Mon 05:13:02 AM 48.1520 21.4020 299° West 468 539 36,000  Level FlightAware ADS-B
Mon 05:13:42 AM 48.1940 21.2890 299° West 468 539 36,000  Level FlightAware ADS-B
Mon 05:14:22 AM 48.2330 21.1820 299° West 468 539 36,000  Level FlightAware ADS-B
Mon 05:15:07 AM 48.2810 21.0500 299° West 469 540 36,000  Level FlightAware ADS-B
Mon 05:15:47 AM 48.3200 20.9430 299° West 470 541 36,000  Level FlightAware ADS-B
Mon 05:16:32 AM 48.3710 20.8020 299° West 470 541 36,000  Level FlightAware ADS-B
Mon 05:17:12 AM 48.4130 20.6850 298° West 470 541 36,000  Level FlightAware ADS-B
Mon 05:17:57 AM 48.4590 20.5580 299° West 471 542 36,000  Level FlightAware ADS-B
Mon 05:18:37 AM 48.5000 20.4420 298° West 472 543 36,000 71 Level FlightAware ADS-B
Mon 05:19:22 AM 48.5430 20.3130 297° West 474 545 36,100 424 Climbing FlightAware ADS-B
Mon 05:20:02 AM 48.5810 20.2000 297° West 466 536 36,600 750 Climbing FlightAware ADS-B
Mon 05:20:42 AM 48.6200 20.0830 297° West 466 536 37,100 776 Climbing FlightAware ADS-B
Mon 05:21:27 AM 48.6660 19.9480 297° West 468 539 37,700 635 Climbing FlightAware ADS-B
Mon 05:22:07 AM 48.7040 19.8310 296° West 468 539 38,000 240 Climbing FlightAware ADS-B
Mon 05:22:42 AM 48.7390 19.7320 298° West 467 537 38,000  Level FlightAware ADS-B
Mon 05:23:32 AM 48.7920 19.5810 298° West 472 543 38,000  Level FlightAware ADS-B
Mon 05:24:12 AM 48.8320 19.4640 297° West 472 543 38,000  Level FlightAware ADS-B
Mon 05:24:57 AM 48.8770 19.3340 298° West 474 545 38,000  Level FlightAware ADS-B
Mon 05:25:37 AM 48.9160 19.2180 297° West 475 547 38,000  Level FlightAware ADS-B
Mon 05:26:22 AM 48.9630 19.0820 298° West 475 547 38,000  Level FlightAware ADS-B
Mon 05:27:02 AM 49.0030 18.9620 297° West 475 547 38,000  Level FlightAware ADS-B
Mon 05:27:42 AM 49.0430 18.8430 297° West 474 545 38,000  Level FlightAware ADS-B
Mon 05:28:27 AM 49.0870 18.7120 297° West 474 545 38,000  Level FlightAware ADS-B
Mon 05:29:07 AM 49.1250 18.5900 295° West 475 547 38,000  Level FlightAware ADS-B
Mon 05:29:52 AM 49.1640 18.4520 293° West 475 547 38,000  Level FlightAware ADS-B
Mon 05:30:32 AM 49.1950 18.3270 291° West 477 549 38,000  Level FlightAware ADS-B
Mon 05:31:17 AM 49.2230 18.1820 287° West 479 551 38,000  Level FlightAware ADS-B
Mon 05:31:57 AM 49.2460 18.0550 286° West 481 554 38,000  Level FlightAware ADS-B
Mon 05:32:37 AM 49.2700 17.9240 286° West 482 555 38,000  Level FlightAware ADS-B
Mon 05:33:22 AM 49.2970 17.7740 285° West 483 556 38,000  Level FlightAware ADS-B
Mon 05:34:02 AM 49.3200 17.6410 285° West 482 555 38,000  Level FlightAware ADS-B
Mon 05:34:47 AM 49.3460 17.4990 286° West 482 555 38,000  Level FlightAware ADS-B
Mon 05:35:27 AM 49.3690 17.3690 285° West 480 552 38,000  Level FlightAware ADS-B
Mon 05:36:07 AM 49.3930 17.2290 285° West 481 554 38,000  Level FlightAware ADS-B
Mon 05:36:32 AM 49.4070 17.1500 285° West 482 555 38,000  Level FlightAware ADS-B
Mon 05:37:07 AM 49.4270 17.0340 285° West 481 554 38,000  Level FlightAware ADS-B
Mon 05:37:57 AM 49.4540 16.8760 285° West 481 554 38,000  Level FlightAware ADS-B
Mon 05:38:37 AM 49.4790 16.7340 285° West 484 557 38,000  Level FlightAware ADS-B
Mon 05:39:22 AM 49.5040 16.5870 285° West 485 558 38,000  Level FlightAware ADS-B
Mon 05:40:02 AM 49.5260 16.4550 284° West 484 557 38,000  Level FlightAware ADS-B
Mon 05:40:42 AM 49.5470 16.3280 284° West 484 557 38,000  Level FlightAware ADS-B
Mon 05:41:27 AM 49.5710 16.1850 285° West 485 558 38,000  Level FlightAware ADS-B
Mon 05:41:37 AM 49.5780 16.1410 284° West 486 559 38,000  Level FlightAware ADS-B
Mon 05:41:57 AM 49.5900 16.0710 285° West 486 559 38,000  Level FlightAware ADS-B
Mon 05:42:32 AM 49.6080 15.9560 284° West 485 558 38,000  Level FlightAware ADS-B
Mon 05:43:17 AM 49.6330 15.8020 284° West 484 557 38,000  Level FlightAware ADS-B
Mon 05:43:57 AM 49.6550 15.6690 284° West 486 559 38,000  Level FlightAware ADS-B
Mon 05:44:42 AM 49.6790 15.5130 283° West 485 558 38,000  Level FlightAware ADS-B
Mon 05:45:27 AM 49.7030 15.3640 284° West 484 557 38,000  Level FlightAware ADS-B
Mon 05:46:07 AM 49.7240 15.2300 284° West 482 555 38,000  Level FlightAware ADS-B
Mon 05:46:47 AM 49.7450 15.0940 283° West 482 555 38,000  Level FlightAware ADS-B
Mon 05:47:32 AM 49.7670 14.9520 284° West 480 552 38,000  Level FlightAware ADS-B
Mon 05:48:12 AM 49.7880 14.8140 283° West 479 551 38,000  Level FlightAware ADS-B
Mon 05:48:57 AM 49.8110 14.6630 283° West 478 550 38,000  Level FlightAware ADS-B
Mon 05:49:37 AM 49.8300 14.5320 283° West 477 549 38,000  Level FlightAware ADS-B
Mon 05:50:17 AM 49.8500 14.3980 283° West 476 548 38,000  Level FlightAware ADS-B
Mon 05:51:02 AM 49.8720 14.2510 283° West 476 548 38,000  Level FlightAware ADS-B
Mon 05:51:42 AM 49.8890 14.1340 283° West 476 548 38,000  Level FlightAware ADS-B
Mon 05:52:27 AM 49.9280 13.9900 293° West 475 547 38,000  Level FlightAware ADS-B
Mon 05:53:07 AM 49.9710 13.8670 299° West 474 545 38,000  Level FlightAware ADS-B
Mon 05:53:47 AM 50.0140 13.7420 298° West 472 543 38,000  Level FlightAware ADS-B
Mon 05:54:32 AM 50.0620 13.6020 298° West 472 543 38,000  Level FlightAware ADS-B
Mon 05:55:12 AM 50.1020 13.4860 298° West 471 542 38,000  Level FlightAware ADS-B
Mon 05:55:52 AM 50.1440 13.3610 298° West 469 540 38,000  Level FlightAware ADS-B
Mon 05:56:37 AM 50.1870 13.2350 298° West 467 537 38,000  Level FlightAware ADS-B
Mon 05:57:12 AM 50.2190 13.1380 297° West 466 536 38,000  Level FlightAware ADS-B
Mon 05:58:42 AM 50.3090 12.8710 298° West 464 534 38,000  Level FlightAware ADS-B
Mon 05:59:27 AM 50.3570 12.7240 297° West 462 532 38,000  Level FlightAware ADS-B
Mon 06:00:07 AM 50.3960 12.6070 298° West 461 531 38,000  Level FlightAware ADS-B
Mon 06:00:47 AM 50.4360 12.4860 297° West 460 529 38,000  Level FlightAware ADS-B
Mon 06:01:32 AM 50.4760 12.3620 297° West 460 529 38,000  Level FlightAware ADS-B
Mon 06:02:12 AM 50.5170 12.2380 298° West 457 526 38,000  Level FlightAware ADS-B
Mon 06:02:57 AM 50.5600 12.1050 297° West 457 526 38,000  Level FlightAware ADS-B
Mon 06:03:37 AM 50.5990 11.9830 297° West 454 522 38,000  Level FlightAware ADS-B
Mon 06:04:17 AM 50.6360 11.8670 297° West 454 522 38,000  Level FlightAware ADS-B
Mon 06:05:02 AM 50.6770 11.7390 297° West 453 521 38,000  Level FlightAware ADS-B
Mon 06:05:42 AM 50.7120 11.6290 297° West 453 521 38,000  Level FlightAware ADS-B
Mon 06:06:32 AM 50.7610 11.4740 297° West 454 522 38,000  Level FlightAware ADS-B
Mon 06:07:22 AM 50.8060 11.3300 296° West 451 519 38,000  Level FlightAware ADS-B
Mon 06:08:02 AM 50.8430 11.2090 296° West 452 520 38,000  Level FlightAware ADS-B
Mon 06:08:42 AM 50.8800 11.0930 297° West 456 525 38,000  Level FlightAware ADS-B
Mon 06:09:27 AM 50.9220 10.9550 296° West 456 525 38,000  Level FlightAware ADS-B
Mon 06:10:07 AM 50.9580 10.8380 296° West 455 524 38,000  Level FlightAware ADS-B
Mon 06:10:47 AM 50.9940 10.7190 296° West 455 524 38,000  Level FlightAware ADS-B
Mon 06:11:32 AM 51.0360 10.5810 296° West 458 527 38,000  Level FlightAware ADS-B
Mon 06:12:07 AM 51.0690 10.4740 296° West 458 527 38,000  Level FlightAware ADS-B
Mon 06:12:57 AM 51.1150 10.3220 296° West 459 528 38,000  Level FlightAware ADS-B
Mon 06:13:37 AM 51.1520 10.1970 295° West 460 529 38,000  Level FlightAware ADS-B
Mon 06:14:17 AM 51.1890 10.0720 295° West 457 526 38,000  Level FlightAware ADS-B
Mon 06:15:02 AM 51.2300 9.9490 298° West 458 527 38,000  Level FlightAware ADS-B
Mon 06:15:42 AM 51.2720 9.8180 297° West 458 527 38,000  Level FlightAware ADS-B
Mon 06:16:27 AM 51.3160 9.6830 298° West 458 527 38,000  Level FlightAware ADS-B
Mon 06:17:07 AM 51.3520 9.5690 297° West 459 528 38,000  Level FlightAware ADS-B
Mon 06:17:52 AM 51.3970 9.4250 297° West 458 527 38,000  Level FlightAware ADS-B
Mon 06:19:27 AM 51.4830 9.1510 297° West 452 520 38,000  Level FlightAware ADS-B
Mon 06:20:07 AM 51.5240 9.0190 297° West 451 519 38,000  Level FlightAware ADS-B
Mon 06:20:52 AM 51.5690 8.8760 297° West 451 519 38,000  Level FlightAware ADS-B
Mon 06:21:32 AM 51.6050 8.7570 296° West 449 517 38,000  Level FlightAware ADS-B
Mon 06:22:17 AM 51.6460 8.6240 296° West 450 518 38,000  Level FlightAware ADS-B
Mon 06:22:57 AM 51.6820 8.5070 296° West 450 518 38,000  Level FlightAware ADS-B
Mon 06:23:42 AM 51.7230 8.3700 296° West 452 520 38,000  Level FlightAware ADS-B
Mon 06:24:22 AM 51.7590 8.2500 296° West 449 517 38,000  Level FlightAware ADS-B
Mon 06:25:02 AM 51.7950 8.1310 296° West 449 517 38,000  Level FlightAware ADS-B
Mon 06:25:47 AM 51.8350 7.9970 296° West 447 514 38,000  Level FlightAware ADS-B
Mon 06:26:27 AM 51.8700 7.8800 296° West 447 514 38,000  Level FlightAware ADS-B
Mon 06:27:12 AM 51.9130 7.7350 296° West 445 512 38,000  Level FlightAware ADS-B
Mon 06:27:52 AM 51.9460 7.6230 296° West 442 509 38,000  Level FlightAware ADS-B
Mon 06:28:32 AM 51.9810 7.5010 295° West 443 510 38,000  Level FlightAware ADS-B
Mon 06:29:17 AM 52.0170 7.3780 295° West 443 510 38,000  Level FlightAware ADS-B
Mon 06:29:57 AM 52.0550 7.2480 295° West 442 509 38,000  Level FlightAware ADS-B
Mon 06:30:37 AM 52.0890 7.1310 295° West 442 509 38,000  Level FlightAware ADS-B
Mon 06:31:22 AM 52.1280 6.9950 295° West 441 507 38,000  Level FlightAware ADS-B
Mon 06:32:02 AM 52.1630 6.8690 294° West 438 504 38,000  Level FlightAware ADS-B
Mon 06:32:47 AM 52.1990 6.7430 295° West 435 501 38,000  Level FlightAware ADS-B
Mon 06:33:27 AM 52.2320 6.6260 295° West 432 497 38,000  Level FlightAware ADS-B
Mon 06:34:07 AM 52.2670 6.5010 295° West 434 499 38,000  Level FlightAware ADS-B
Mon 06:34:52 AM 52.3060 6.3630 295° West 434 499 38,000  Level FlightAware ADS-B
Mon 06:35:37 AM 52.3420 6.2320 294° West 434 499 38,000  Level FlightAware ADS-B
Mon 06:36:17 AM 52.3740 6.1140 294° West 436 502 38,000  Level FlightAware ADS-B
Mon 06:36:57 AM 52.4070 5.9950 294° West 439 505 38,000  Level FlightAware ADS-B
Mon 06:37:42 AM 52.4450 5.8540 294° West 437 503 38,000  Level FlightAware ADS-B
Mon 06:38:22 AM 52.4790 5.7310 294° West 435 501 38,000 -1,268 Level FlightAware ADS-B
Mon 06:38:53 AM 52.5006 5.6281 294° West 474 545 36,500  Descending FlightAware UK
Mon 06:39:07 AM 52.5150 5.5980 294° West 435 501 38,000  Climbing FlightAware ADS-B
Mon 06:39:29 AM 52.5315 5.5206 294° West 474 545 36,500  Descending FlightAware UK
Mon 06:39:47 AM 52.5470 5.4770 294° West 436 502 38,000  Climbing FlightAware ADS-B
Mon 06:40:23 AM 52.5804 5.3600 294° West 474 545 36,500  Descending FlightAware UK
Mon 06:40:32 AM 52.5830 5.3410 294° West 437 503 38,000 1,837 Climbing FlightAware ADS-B
Mon 06:41:12 AM 52.6130 5.2300 294° West 438 504 38,000  Level FlightAware ADS-B
Mon 06:41:52 AM 52.6480 5.0970 293° West 437 503 38,000  Level FlightAware ADS-B
Mon 06:42:32 AM 52.6810 4.9720 294° West 438 504 38,000 -1,233 Level FlightAware ADS-B
Mon 06:43:05 AM 52.7092 4.8649 294° West 474 545 36,500  Descending FlightAware UK
Mon 06:43:17 AM 52.7150 4.8400 294° West 438 504 38,000  Climbing FlightAware ADS-B
Mon 06:43:47 AM 52.7426 4.7363 294° West 478 550 36,500  Descending FlightAware UK
Mon 06:43:57 AM 52.7460 4.7190 294° West 438 504 38,000 1,636 Climbing FlightAware ADS-B
Mon 06:44:42 AM 52.7840 4.5740 293° West 435 501 38,000  Level FlightAware ADS-B
Mon 06:45:22 AM 52.8140 4.4530 292° West 434 499 38,000 -1,385 Level FlightAware ADS-B
Mon 06:45:47 AM 52.8362 4.3698 292° West 476 548 36,500  Descending FlightAware UK
Mon 06:46:07 AM 52.8480 4.3220 292° West 433 498 38,000  Climbing FlightAware ADS-B
Mon 06:46:23 AM 52.8637 4.2603 292° West 476 548 36,500  Descending FlightAware UK
Mon 06:46:42 AM 52.8740 4.2180 292° West 431 496 38,000 1,406 Climbing FlightAware ADS-B
Mon 06:47:27 AM 52.9100 4.0790 293° West 430 495 38,000 -1,084 Level FlightAware ADS-B
Mon 06:48:05 AM 52.9418 3.9506 293° West 476 548 36,500  Descending FlightAware UK
Mon 06:48:12 AM 52.9450 3.9370 293° West 428 493 38,000 2,143 Climbing FlightAware ADS-B
Mon 06:48:47 AM 52.9710 3.8330 293° West 428 493 38,000 -1,385 Level FlightAware ADS-B
Mon 06:49:17 AM 52.9957 3.7331 293° West 476 548 36,500  Descending FlightAware UK
Mon 06:49:27 AM 53.0010 3.7120 293° West 427 491 38,000  Climbing FlightAware ADS-B
Mon 06:49:47 AM 53.0175 3.6422 293° West 480 552 36,500 -2,368 Descending FlightAware UK
Mon 06:50:05 AM 53.0295 3.5867 290° West 478 550 36,500 3,600 Level FlightAware UK
Mon 06:50:12 AM 53.0310 3.5700 290° West 431 496 38,000  Climbing FlightAware ADS-B
Mon 06:50:29 AM 53.0416 3.5093 290° West 476 548 36,500 -2,571 Descending FlightAware UK
Mon 06:50:47 AM 53.0511 3.4526 285° West 476 548 36,500 3,214 Level FlightAware UK
Mon 06:50:57 AM 53.0570 3.4310 285° West 428 493 38,000 2,000 Climbing FlightAware ADS-B
Mon 06:51:32 AM 53.0810 3.3260 291° West 426 490 38,000 -1,607 Level FlightAware ADS-B
Mon 06:51:53 AM 53.0976 3.2515 291° West 480 552 36,500  Descending FlightAware UK
Mon 06:52:22 AM 53.1140 3.1780 291° West 423 487 38,000 1,304 Climbing FlightAware ADS-B
Mon 06:53:02 AM 53.1410 3.0550 290° West 413 475 38,000 -1,636 Level FlightAware ADS-B
Mon 06:53:17 AM 53.1534 2.9965 290° West 472 543 36,500  Descending FlightAware UK
Mon 06:53:47 AM 53.1690 2.9230 290° West 405 466 38,000  Climbing FlightAware ADS-B
Mon 06:54:16 AM 53.1910 2.8216 290° West 468 539 36,500  Descending FlightAware UK
Mon 06:54:22 AM 53.1910 2.8210 290° West 404 465 38,000  Climbing FlightAware ADS-B
Mon 06:54:40 AM 53.2067 2.7512 290° West 468 539 36,500 -2,500 Descending FlightAware UK
Mon 06:54:58 AM 53.2183 2.6984 290° West 468 539 36,500 3,333 Level FlightAware UK
Mon 06:55:07 AM 53.2230 2.6780 290° West 408 470 38,000  Climbing FlightAware ADS-B
Mon 06:55:22 AM 53.2341 2.6275 290° West 468 539 36,500  Descending FlightAware UK
Mon 06:55:52 AM 53.2500 2.5520 290° West 412 474 38,000  Climbing FlightAware ADS-B
Mon 06:56:28 AM 53.2693 2.4264 290° West 470 541 36,500  Descending FlightAware UK
Mon 06:56:32 AM 53.2690 2.4280 290° West 416 479 38,000  Climbing FlightAware ADS-B
Mon 06:56:52 AM 53.2810 2.3521 290° West 472 543 36,500  Descending FlightAware UK
Mon 06:57:17 AM 53.2920 2.2840 290° West 414 476 38,000  Climbing FlightAware ADS-B
Mon 06:57:34 AM 53.3014 2.2227 290° West 474 545 36,500  Descending FlightAware UK
Mon 06:57:57 AM 53.3100 2.1610 290° West 409 471 38,000  Climbing FlightAware ADS-B
Mon 06:58:16 AM 53.3201 2.0941 290° West 474 545 36,500 -2,432 Descending FlightAware UK
Mon 06:58:34 AM 53.3279 2.0387 283° West 474 545 36,500 3,462 Level FlightAware UK
Mon 06:58:42 AM 53.3300 2.0250 283° West 405 466 38,000  Climbing FlightAware ADS-B
Mon 06:59:16 AM 53.3455 1.9123 283° West 472 543 36,500  Descending FlightAware UK
Mon 06:59:22 AM 53.3460 1.9070 283° West 400 460 38,000  Climbing FlightAware ADS-B
Mon 06:59:40 AM 53.3571 1.8417 283° West 468 539 36,500 -2,500 Descending FlightAware UK
Mon 06:59:58 AM 53.3672 1.7903 288° West 472 543 36,500 4,091 Level FlightAware UK
Mon 07:00:02 AM 53.3670 1.7930 288° West 392 451 38,000  Climbing FlightAware ADS-B
Mon 07:00:22 AM 53.3807 1.7210 288° West 470 541 36,500  Descending FlightAware UK
Mon 07:00:34 AM 53.3871 1.6873 288° West 392 451 38,000  Climbing FlightAware ADS-B
Mon 07:00:52 AM 53.3969 1.6348 288° West 470 541 36,500  Descending FlightAware UK
Mon 07:01:04 AM 53.4032 1.6011 288° West 389 448 38,000  Climbing FlightAware ADS-B
Mon 07:01:22 AM 53.4127 1.5485 288° West 470 541 36,500  Descending FlightAware UK
Mon 07:01:37 AM 53.4200 1.5080 288° West 388 447 38,000 2,000 Climbing FlightAware ADS-B
Mon 07:02:07 AM 53.4356 1.4209 287° West 387 445 38,000 -2,000 Level FlightAware ADS-B
Mon 07:02:22 AM 53.4434 1.3769 287° West 468 539 36,500  Descending FlightAware UK
Mon 07:02:41 AM 53.4529 1.3242 287° West 386 444 38,000  Climbing FlightAware ADS-B
Mon 07:02:58 AM 53.4617 1.2740 287° West 468 539 36,500 -2,571 Descending FlightAware UK
Mon 07:03:16 AM 53.4709 1.2227 287° West 468 539 36,500 2,195 Level FlightAware UK
Mon 07:03:39 AM 53.4823 1.1588 287° West 384 442 38,000 1,475 Climbing FlightAware ADS-B
Mon 07:04:17 AM 53.4990 1.0650 287° West 385 443 38,000 -1,475 Level FlightAware ADS-B
Mon 07:04:40 AM 53.5130 0.9846 287° West 466 536 36,500  Descending FlightAware UK
Mon 07:04:57 AM 53.5170 0.9610 287° West 383 441 38,000 2,813 Climbing FlightAware ADS-B
Mon 07:05:12 AM 53.5288 0.8942 287° West 384 442 38,000  Level FlightAware ADS-B
Mon 07:05:42 AM 53.5410 0.8230 286° West 383 441 38,000 -2,000 Level FlightAware ADS-B
Mon 07:05:57 AM 53.5516 0.7633 286° West 466 536 36,500  Descending FlightAware UK
Mon 07:06:06 AM 53.5558 0.7394 286° West 383 441 38,000  Climbing FlightAware ADS-B
Mon 07:06:21 AM 53.5634 0.6950 286° West 466 536 36,500  Descending FlightAware UK
Mon 07:06:41 AM 53.5728 0.6408 286° West 383 441 38,000 1,765 Climbing FlightAware ADS-B
Mon 07:07:12 AM 53.5883 0.5505 286° West 384 442 38,000  Level FlightAware ADS-B
Mon 07:07:43 AM 53.6031 0.4636 286° West 384 442 38,000 -1,765 Level FlightAware ADS-B
Mon 07:08:03 AM 53.6131 0.4042 286° West 466 536 36,500  Descending FlightAware UK
Mon 07:08:14 AM 53.6182 0.3749 286° West 384 442 38,000  Climbing FlightAware ADS-B
Mon 07:08:33 AM 53.6278 0.3183 286° West 466 536 36,500  Descending FlightAware UK
Mon 07:08:45 AM 53.6331 0.2864 286° West 386 444 38,000 2,045 Climbing FlightAware ADS-B
Mon 07:09:17 AM 53.6489 0.1927 286° West 385 443 38,000  Level FlightAware ADS-B
Mon 07:09:50 AM 53.6645 0.0995 286° West 384 442 38,000 -1,731 Level FlightAware ADS-B
Mon 07:10:09 AM 53.6740 0.0426 286° West 462 532 36,500  Descending FlightAware UK
Mon 07:10:21 AM 53.6797 0.0084 286° West 387 445 38,000 2,571 Climbing FlightAware ADS-B
Mon 07:10:44 AM 53.6911 -0.0556 287° West 383 441 38,000  Level FlightAware ADS-B
Mon 07:10:52 AM 53.6977 -0.0786 296° West 372 428 38,000  Level FlightAware ADS-B
Mon 07:10:58 AM 53.7035 -0.0936 303° West 368 423 38,000  Level FlightAware ADS-B
Mon 07:11:17 AM 53.7240 -0.1318 312° West 359 413 38,000 -2,571 Level FlightAware ADS-B
Mon 07:11:33 AM 53.7461 -0.1579 312° West 468 539 36,500  Descending FlightAware UK
Mon 07:11:50 AM 53.7682 -0.1848 312° West 354 407 38,000 1,667 Climbing FlightAware ADS-B
Mon 07:12:27 AM 53.8160 -0.2400 326° Northwest 352 405 38,000  Level FlightAware ADS-B
Mon 07:12:46 AM 53.8439 -0.2709 327° Northwest 354 407 38,000 -1,875 Level FlightAware ADS-B
Mon 07:13:15 AM 53.8838 -0.3166 327° Northwest 474 545 36,500 -1,915 Descending FlightAware UK
Mon 07:13:33 AM 53.9088 -0.3456 326° Northwest 474 545 36,500 2,432 Level FlightAware UK
Mon 07:13:52 AM 53.9290 -0.3690 326° Northwest 363 418 38,000  Climbing FlightAware ADS-B
Mon 07:14:15 AM 53.9669 -0.4132 326° Northwest 476 548 36,500  Descending FlightAware UK
Mon 07:14:32 AM 53.9860 -0.4360 326° Northwest 362 417 38,000  Climbing FlightAware ADS-B
Mon 07:14:57 AM 54.0245 -0.4802 326° Northwest 474 545 36,500  Descending FlightAware UK
Mon 07:15:12 AM 54.0420 -0.5000 326° Northwest 361 415 38,000 2,903 Climbing FlightAware ADS-B
Mon 07:15:28 AM 54.0675 -0.5304 325° Northwest 363 418 38,000  Level FlightAware ADS-B
Mon 07:15:46 AM 54.0910 -0.5616 322° Northwest 363 418 38,000 -2,195 Level FlightAware ADS-B
Mon 07:16:09 AM 54.1204 -0.6038 322° Northwest 476 548 36,500  Descending FlightAware UK
Mon 07:16:19 AM 54.1331 -0.6231 322° Northwest 366 421 38,000  Climbing FlightAware ADS-B
Mon 07:16:39 AM 54.1583 -0.6611 322° Northwest 476 548 36,500  Descending FlightAware UK
Mon 07:17:08 AM 54.1943 -0.7177 322° Northwest 366 421 38,000 1,084 Climbing FlightAware ADS-B
Mon 07:18:02 AM 54.2590 -0.8180 318° Northwest 366 421 38,000  Level FlightAware ADS-B
Mon 07:18:42 AM 54.3100 -0.8960 318° Northwest 368 423 38,000  Level FlightAware ADS-B
Mon 07:19:27 AM 54.3650 -0.9810 318° Northwest 369 425 38,000 -1,324 Level FlightAware ADS-B
Mon 07:19:50 AM 54.3998 -1.0339 318° Northwest 478 550 36,500  Descending FlightAware UK
Mon 07:20:07 AM 54.4160 -1.0590 318° Northwest 370 426 38,000  Climbing FlightAware ADS-B
Mon 07:20:32 AM 54.4527 -1.1157 318° Northwest 476 548 36,500  Descending FlightAware UK
Mon 07:20:47 AM 54.4670 -1.1370 318° Northwest 371 427 38,000  Climbing FlightAware ADS-B
Mon 07:21:14 AM 54.5060 -1.1984 318° Northwest 478 550 36,500  Descending FlightAware UK
Mon 07:21:32 AM 54.5230 -1.2240 318° Northwest 369 425 38,000 -889 Climbing FlightAware ADS-B
Mon 07:22:08 AM 54.5739 -1.3043 318° Northwest 478 550 35,700 -1,050 Descending FlightAware UK
Mon 07:22:12 AM 54.5720 -1.3020 318° Northwest 368 423 37,300 -1,250 Climbing FlightAware ADS-B
Mon 07:22:32 AM 54.6040 -1.3514 318° Northwest 478 550 35,200 -1,733 Descending FlightAware UK
Mon 07:22:57 AM 54.6280 -1.3880 318° Northwest 365 420 36,000 -2,429 Climbing FlightAware ADS-B
Mon 07:23:14 AM 54.6568 -1.4330 318° Northwest 468 539 33,500 -2,400 Descending FlightAware UK
Mon 07:23:37 AM 54.6790 -1.4660 318° Northwest 360 414 34,400 -2,286 Climbing FlightAware ADS-B
Mon 07:23:56 AM 54.7098 -1.5109 318° Northwest 468 539 31,900 -5,189 Descending FlightAware UK
Mon 07:24:14 AM 54.7326 -1.5439 320° Northwest 462 532 31,200 2,286 Descending FlightAware UK
Mon 07:24:17 AM 54.7350 -1.5460 320° Northwest 358 412 32,700 -2,333 Climbing FlightAware ADS-B
Mon 07:24:32 AM 54.7557 -1.5762 320° Northwest 460 529 30,500 -5,455 Descending FlightAware UK
Mon 07:24:50 AM 54.7793 -1.6083 322° Northwest 458 527 29,700 800 Descending FlightAware UK
Mon 07:25:02 AM 54.7920 -1.6260 322° Northwest 360 414 30,900 -462 Climbing FlightAware ADS-B
Mon 07:25:42 AM 54.8430 -1.6980 321° Northwest 358 412 29,300 -4,000 Descending FlightAware ADS-B
Mon 07:26:02 AM 54.8717 -1.7387 321° Northwest 446 513 26,900 -2,267 Descending FlightAware UK
Mon 07:26:27 AM 54.9020 -1.7800 321° Northwest 352 405 27,600 -2,200 Climbing FlightAware ADS-B
Mon 07:27:02 AM 54.9473 -1.8430 321° Northwest 438 504 24,700 -2,250 Descending FlightAware UK
Mon 07:27:07 AM 54.9510 -1.8480 321° Northwest 345 397 26,100 -1,000 Climbing FlightAware ADS-B
Mon 07:27:38 AM 54.9815 -1.9185 321° Northwest 422 486 24,100 -800 Descending FlightAware UK
Mon 07:27:52 AM 54.9880 -1.9450 321° Northwest 328 377 25,500 -800 Climbing FlightAware ADS-B
Mon 07:28:08 AM 54.9998 -1.9901 321° Northwest 408 470 23,700 -750 Descending FlightAware UK
Mon 07:28:32 AM 55.0190 -2.0340 321° Northwest 319 367 25,000 -750 Climbing FlightAware ADS-B
Mon 07:28:56 AM 55.0422 -2.0889 321° Northwest 412 474 23,100 -750 Descending FlightAware UK
Mon 07:29:12 AM 55.0550 -2.1180 321° Northwest 331 381 24,500 -667 Climbing FlightAware ADS-B
Mon 07:29:32 AM 55.0750 -2.1661 321° Northwest 412 474 22,700 -3,316 Descending FlightAware UK
Mon 07:29:50 AM 55.0916 -2.2050 307° West 408 470 22,400 2,880 Descending FlightAware UK
Mon 07:29:57 AM 55.0950 -2.2130 307° West 336 387 23,900 -783 Climbing FlightAware ADS-B
Mon 07:30:13 AM 55.1138 -2.2566 307° West 410 472 22,100 -3,529 Descending FlightAware UK
Mon 07:30:31 AM 55.1308 -2.2961 307° West 410 472 21,900 4,105 Descending FlightAware UK
Mon 07:30:32 AM 55.1280 -2.2900 307° West 341 392 23,400 -750 Climbing FlightAware ADS-B
Mon 07:30:55 AM 55.1534 -2.3492 307° West 406 467 21,600 -933 Descending FlightAware UK
Mon 07:31:17 AM 55.1710 -2.3910 307° West 338 389 22,700 -1,250 Climbing FlightAware ADS-B
Mon 07:31:19 AM 55.1758 -2.4020 307° West 400 460 21,100 -6,300 Descending FlightAware UK
Mon 07:31:37 AM 55.1926 -2.4414 307° West 400 460 20,600 698 Descending FlightAware UK
Mon 07:32:02 AM 55.2130 -2.4890 307° West 335 386 21,600 -1,375 Climbing FlightAware ADS-B
Mon 07:32:25 AM 55.2372 -2.5456 307° West 394 453 19,500 -1,200 Descending FlightAware UK
Mon 07:32:42 AM 55.2500 -2.5760 307° West 329 379 20,800 -1,000 Climbing FlightAware ADS-B
Mon 07:33:01 AM 55.2686 -2.6226 307° West 388 447 18,900 -1,200 Descending FlightAware UK
Mon 07:33:27 AM 55.2860 -2.6730 307° West 318 366 19,900 -1,429 Climbing FlightAware ADS-B
Mon 07:33:43 AM 55.3005 -2.7148 307° West 378 435 17,900 -1,950 Descending FlightAware UK
Mon 07:34:07 AM 55.3150 -2.7590 307° West 318 366 18,600 -2,714 Climbing FlightAware ADS-B
Mon 07:34:25 AM 55.3322 -2.8088 307° West 382 440 16,000 -2,400 Descending FlightAware UK
Mon 07:34:42 AM 55.3420 -2.8370 307° West 331 381 17,200 -1,000 Climbing FlightAware ADS-B
Mon 07:35:01 AM 55.3595 -2.8918 307° West 370 426 15,400 -3,243 Descending FlightAware UK
Mon 07:35:19 AM 55.3729 -2.9322 300° West 366 421 15,200 -833 Descending FlightAware UK
Mon 07:35:37 AM 55.3862 -2.9720 300° West 366 421 14,900 -833 Descending FlightAware UK
Mon 07:35:55 AM 55.3994 -3.0121 300° West 362 417 14,700 3,120 Descending FlightAware UK
Mon 07:36:02 AM 55.4020 -3.0200 300° West 315 362 16,200 1,622 Climbing FlightAware ADS-B
Mon 07:36:32 AM 55.4220 -3.0800 300° West 316 364 15,700 -2,847 Descending FlightAware ADS-B
Mon 07:37:01 AM 55.4472 -3.1567 300° West 358 412 13,400 -3,447 Descending FlightAware UK
Mon 07:37:19 AM 55.4598 -3.1947 300° West 354 407 13,000 2,308 Descending FlightAware UK
Mon 07:37:27 AM 55.4620 -3.2020 300° West 300 345 14,400 -1,250 Climbing FlightAware ADS-B
Mon 07:37:43 AM 55.4764 -3.2455 300° West 352 405 12,500 -1,050 Descending FlightAware UK
Mon 07:38:07 AM 55.4860 -3.2750 300° West 297 342 13,700 -1,250 Climbing FlightAware ADS-B
Mon 07:38:31 AM 55.5088 -3.3447 300° West 346 398 11,500 -1,029 Descending FlightAware UK
Mon 07:38:42 AM 55.5070 -3.3380 300° West 288 331 13,100 -1,286 Climbing FlightAware ADS-B
Mon 07:39:13 AM 55.5364 -3.4293 300° West 334 384 10,600 -1,200 Descending FlightAware UK
Mon 07:39:32 AM 55.5410 -3.4440 300° West 282 325 12,100 -500 Climbing FlightAware ADS-B
Mon 07:39:49 AM 55.5597 -3.5014 300° West 334 384 10,300 -4,114 Descending FlightAware UK
Mon 07:40:07 AM 55.5714 -3.5376 300° West 332 382 9,700 -1,778 Descending FlightAware UK
Mon 07:40:43 AM 55.5947 -3.6095 300° West 326 375 8,700 -1,556 Descending FlightAware UK
Mon 07:41:01 AM 55.6064 -3.6451 300° West 318 366 8,300 -1,000 Descending FlightAware UK
Mon 07:41:25 AM 55.6211 -3.6907 300° West 306 352 8,000 -625 Descending FlightAware UK
Mon 07:41:49 AM 55.6351 -3.7347 299° West 292 336 7,800 -571 Descending FlightAware UK
Mon 07:42:07 AM 55.6452 -3.7663 300° West 284 327 7,600 -667 Descending FlightAware UK
Mon 07:42:25 AM 55.6596 -3.7920 315° West 278 320 7,400 -1,167 Descending FlightAware UK
Mon 07:42:43 AM 55.6755 -3.8149 321° Northwest 274 315 6,900 -1,667 Descending FlightAware UK
Mon 07:43:01 AM 55.6917 -3.8366 323° Northwest 268 308 6,400 -1,667 Descending FlightAware UK
Mon 07:43:19 AM 55.7080 -3.8582 323° Northwest 272 313 5,900 -1,500 Descending FlightAware UK
Mon 07:43:37 AM 55.7243 -3.8799 323° Northwest 264 304 5,500 -1,333 Descending FlightAware UK
Mon 07:43:55 AM 55.7403 -3.9018 322° Northwest 262 302 5,100 2,400 Descending FlightAware UK
Mon 07:44:02 AM 55.7420 -3.9040 322° Northwest 245 282 6,500 2,727 Climbing FlightAware ADS-B
Mon 07:44:17 AM 55.7550 -3.9220 322° Northwest 241 277 6,100 -1,500 Descending FlightAware ADS-B
Mon 07:44:42 AM 55.7780 -3.9520 324° Northwest 245 282 5,500 -3,818 Descending FlightAware ADS-B
Mon 07:45:01 AM 55.8007 -3.9807 324° Northwest 260 299 3,300 -1,440 Descending FlightAware UK
Mon 07:45:07 AM 55.7990 -3.9780 324° Northwest 242 278 4,900 5,250 Climbing FlightAware ADS-B
Mon 07:45:17 AM 55.8100 -3.9930 323° Northwest 239 275 4,700 -4,400 Descending FlightAware ADS-B
Mon 07:45:37 AM 55.8313 -4.0218 323° Northwest 238 274 2,700 -857 Descending FlightAware UK
Mon 07:45:52 AM 55.8360 -4.0280 323° Northwest 208 239 4,200 -667 Climbing FlightAware ADS-B
Mon 07:46:13 AM 55.8588 -4.0566 323° Northwest 208 239 2,300 -600 Descending FlightAware UK
Mon 07:46:22 AM 55.8600 -4.0570 323° Northwest 180 207 3,900 -200 Climbing FlightAware ADS-B
Mon 07:46:43 AM 55.8795 -4.0803 323° Northwest 188 216 2,200 -240 Descending FlightAware UK
Mon 07:46:47 AM 55.8780 -4.0780 323° Northwest 170 196 3,800 5,053 Climbing FlightAware ADS-B
Mon 07:47:02 AM 55.8870 -4.0890 326° Northwest 175 201 3,800 -3,097 Level FlightAware ADS-B
Mon 07:47:18 AM 55.9033 -4.1073 326° Northwest 186 214 2,200  Descending FlightAware UK
Mon 07:47:32 AM 55.9080 -4.1120 326° Northwest 168 193 3,800 -200 Climbing FlightAware ADS-B
Mon 07:47:48 AM 55.9230 -4.1291 326° Northwest 188 216 2,100 -480 Descending FlightAware UK
Mon 07:47:57 AM 55.9220 -4.1270 326° Northwest 169 194 3,600 3,250 Climbing FlightAware ADS-B
Mon 07:48:12 AM 55.9340 -4.1410 327° Northwest 161 185 3,400 -400 Descending FlightAware ADS-B
Mon 07:48:42 AM 55.9550 -4.1630 330° Northwest 151 174 3,300 -150 Descending FlightAware ADS-B
Mon 07:48:52 AM 55.9600 -4.1710 318° Northwest 130 150 3,300  Level FlightAware ADS-B
Mon 07:49:07 AM 55.9610 -4.1870 276° West 128 147 3,300 -3,375 Level FlightAware ADS-B
Mon 07:49:24 AM 55.9614 -4.2076 276° West 168 193 1,500 -600 Descending FlightAware UK
Mon 07:49:37 AM 55.9610 -4.2150 276° West 126 145 3,000 -600 Climbing FlightAware ADS-B
Mon 07:49:54 AM 55.9613 -4.2392 276° West 164 189 1,200 -720 Descending FlightAware UK
Mon 07:50:02 AM 55.9610 -4.2410 276° West 128 147 2,700 -250 Climbing FlightAware ADS-B
Mon 07:50:18 AM 55.9594 -4.2636 276° West 164 189 1,100 -200 Descending FlightAware UK
Mon 07:50:32 AM 55.9580 -4.2700 276° West 124 143 2,600 -600 Climbing FlightAware ADS-B
Mon 07:50:48 AM 55.9492 -4.2887 276° West 168 193 800 -600 Descending FlightAware UK
Mon 07:51:02 AM 55.9470 -4.2940 276° West 126 145 2,300 2,294 Climbing FlightAware ADS-B
Mon 07:51:22 AM 55.9400 -4.3060 276° West 123 142 2,100 -5,182 Descending FlightAware ADS-B
Mon 07:51:24 AM 55.9351 -4.3152 276° West 162 186 400 -3,750 Descending FlightAware UK
Mon 07:51:54 AM 55.9236 -4.3369 276° West 150 173 100 2,182 Descending FlightAware UK
Mon 07:51:57 AM 55.9240 -4.3350 276° West 116 133 1,600 2,786 Climbing FlightAware ADS-B
Mon 07:52:22 AM 55.9150 -4.3530 228° Southwest 115 132 1,400 -545 Descending FlightAware ADS-B
Mon 07:52:52 AM 55.9040 -4.3730 226° Southwest 118 136 1,100 -700 Descending FlightAware ADS-B
Mon 07:53:22 AM 55.8920 -4.3950 226° Southwest 120 138 700 -667 Descending FlightAware ADS-B
Mon 07:53:37 AM 55.8870 -4.4060 231° Southwest 117 135 600 -600 Descending FlightAware ADS-B
Mon 07:54:02 AM 55.8780 -4.4220 225° Southwest 117 135 300 -720 Descending FlightAware ADS-B

Login

Don't have an account? Register now (free) for customized features, flight alerts, and more!